createdAt,value
2022-11-03T00:01:15.748Z,11.32
2022-11-03T00:03:43.340Z,11.40
2022-11-03T00:06:10.841Z,11.43
2022-11-03T00:08:39.545Z,12.82
2022-11-03T00:11:08.180Z,12.32
2022-11-03T00:13:36.215Z,12.88
2022-11-03T00:16:03.980Z,12.85
2022-11-03T00:18:32.950Z,12.02
2022-11-03T00:21:01.020Z,12.60
2022-11-03T00:23:29.462Z,14.50
2022-11-03T00:25:57.534Z,12.65
2022-11-03T00:28:24.999Z,13.18
2022-11-03T00:30:52.522Z,13.32
2022-11-03T00:33:19.963Z,13.30
2022-11-03T00:35:48.821Z,14.82
2022-11-03T00:38:16.391Z,13.88
2022-11-03T00:40:43.854Z,13.20
2022-11-03T00:43:11.316Z,14.25
2022-11-03T00:45:38.910Z,15.65
2022-11-03T00:48:24.057Z,14.43
2022-11-03T00:50:52.888Z,16.40
2022-11-03T00:53:20.390Z,13.13
2022-11-03T00:55:50.214Z,14.85
2022-11-03T00:58:17.770Z,15.50
2022-11-03T01:00:52.375Z,14.45
2022-11-03T01:03:19.903Z,15.70
2022-11-03T01:06:05.126Z,14.98
2022-11-03T01:08:35.132Z,15.07
2022-11-03T01:11:20.165Z,14.60
2022-11-03T01:13:47.650Z,15.50
2022-11-03T01:16:15.111Z,14.88
2022-11-03T01:18:42.712Z,15.60
2022-11-03T01:21:10.184Z,14.98
2022-11-03T01:23:39.006Z,16.27
2022-11-03T01:26:06.912Z,16.42
2022-11-03T01:28:34.836Z,15.35
2022-11-03T01:31:05.632Z,17.58
2022-11-03T01:33:33.121Z,15.43
2022-11-03T01:36:00.643Z,15.10
2022-11-03T01:38:28.242Z,14.38
2022-11-03T01:40:57.086Z,14.80
2022-11-03T01:43:26.188Z,16.27
2022-11-03T01:45:55.404Z,16.10
2022-11-03T01:48:23.288Z,14.40
2022-11-03T01:50:51.060Z,14.45
2022-11-03T01:53:19.345Z,15.85
2022-11-03T01:55:47.744Z,15.18
2022-11-03T01:58:18.585Z,16.02
2022-11-03T02:00:48.004Z,14.68
2022-11-03T02:03:16.473Z,14.98
2022-11-03T02:05:45.274Z,14.95
2022-11-03T02:08:14.729Z,15.23
2022-11-03T02:10:42.535Z,16.88
2022-11-03T02:13:13.674Z,16.00
2022-11-03T02:15:42.987Z,14.45
2022-11-03T02:18:11.211Z,14.07
2022-11-03T02:20:38.752Z,15.65
2022-11-03T02:23:21.403Z,13.85
2022-11-03T02:25:51.963Z,15.27
2022-11-03T02:28:20.736Z,15.93
2022-11-03T02:30:53.097Z,16.33
2022-11-03T02:33:27.740Z,15.88
2022-11-03T02:35:58.034Z,16.17
2022-11-03T02:38:28.050Z,15.43
2022-11-03T02:40:58.145Z,15.05
2022-11-03T02:43:26.513Z,17.75
2022-11-03T02:45:54.135Z,14.98
2022-11-03T02:48:21.618Z,14.57
2022-11-03T02:50:49.804Z,15.23
2022-11-03T02:53:17.423Z,17.00
2022-11-03T02:55:49.822Z,15.18
2022-11-03T02:58:21.073Z,16.50
2022-11-03T03:00:50.801Z,15.25
2022-11-03T03:03:21.384Z,15.00
2022-11-03T03:05:49.984Z,16.25
2022-11-03T03:08:17.519Z,16.45
2022-11-03T03:10:46.533Z,14.90
2022-11-03T03:13:15.777Z,17.10
2022-11-03T03:15:46.984Z,17.38
2022-11-03T03:18:17.698Z,16.08
2022-11-03T03:20:51.630Z,15.88
2022-11-03T03:23:20.335Z,17.13
2022-11-03T03:25:49.798Z,18.55
2022-11-03T03:28:20.506Z,17.73
2022-11-03T03:30:49.979Z,17.52
2022-11-03T03:33:18.849Z,18.65
2022-11-03T03:35:48.625Z,17.17
2022-11-03T03:38:18.436Z,16.05
2022-11-03T03:40:47.861Z,18.17
2022-11-03T03:43:15.661Z,18.25
2022-11-03T03:45:44.912Z,17.00
2022-11-03T03:48:13.832Z,16.30
2022-11-03T03:50:42.780Z,18.35
2022-11-03T03:53:11.491Z,20.50
2022-11-03T03:55:40.285Z,18.17
2022-11-03T03:58:08.493Z,18.83
2022-11-03T04:00:40.026Z,19.15
2022-11-03T04:03:09.745Z,18.15
2022-11-03T04:05:38.597Z,18.17
2022-11-03T04:08:06.420Z,19.65
2022-11-03T04:10:34.129Z,18.85
2022-11-03T04:13:19.074Z,19.25
2022-11-03T04:16:04.031Z,20.90
2022-11-03T04:18:48.820Z,16.90
2022-11-03T04:21:34.890Z,17.25
2022-11-03T04:24:02.357Z,16.58
2022-11-03T04:26:30.206Z,16.17
2022-11-03T04:28:58.489Z,17.50
2022-11-03T04:31:27.430Z,17.42
2022-11-03T04:33:55.121Z,17.05
2022-11-03T04:36:25.283Z,17.88
2022-11-03T04:38:53.097Z,18.40
2022-11-03T04:41:22.285Z,15.80
2022-11-03T04:43:50.970Z,17.48
2022-11-03T04:46:24.711Z,16.55
2022-11-03T04:48:53.636Z,17.80
2022-11-03T04:51:23.241Z,16.40
2022-11-03T04:53:53.896Z,16.65
2022-11-03T04:56:23.136Z,16.05
2022-11-03T04:58:50.926Z,16.98
2022-11-03T05:01:23.964Z,17.23
2022-11-03T05:03:53.798Z,16.02
2022-11-03T05:06:22.382Z,15.38
2022-11-03T05:08:53.306Z,15.57
2022-11-03T05:11:22.629Z,15.68
2022-11-03T05:13:51.271Z,13.98
2022-11-03T05:16:19.175Z,15.10
2022-11-03T05:18:48.090Z,16.02
2022-11-03T05:21:16.754Z,14.23
2022-11-03T05:23:45.721Z,14.52
2022-11-03T05:26:15.648Z,14.52
2022-11-03T05:28:43.564Z,14.50
2022-11-03T05:31:19.506Z,15.55
2022-11-03T05:33:49.804Z,15.38
2022-11-03T05:36:20.059Z,13.68
2022-11-03T05:38:47.735Z,15.27
2022-11-03T05:41:17.702Z,13.60
2022-11-03T05:43:45.262Z,14.00
2022-11-03T05:46:13.240Z,13.07
2022-11-03T05:48:41.795Z,13.02
2022-11-03T05:51:16.559Z,13.52
2022-11-03T05:53:44.346Z,12.95
2022-11-03T05:56:14.432Z,12.02
2022-11-03T05:58:46.855Z,13.73
2022-11-03T06:01:14.911Z,14.38
2022-11-03T06:03:42.490Z,13.93
2022-11-03T06:06:15.165Z,13.90
2022-11-03T06:08:46.103Z,14.18
2022-11-03T06:11:21.240Z,15.13
2022-11-03T06:13:50.043Z,12.70
2022-11-03T06:16:32.942Z,11.25
2022-11-03T06:19:02.821Z,12.98
2022-11-03T06:21:31.262Z,12.30
2022-11-03T06:24:00.114Z,11.85
2022-11-03T06:26:28.620Z,11.93
2022-11-03T06:28:57.660Z,11.45
2022-11-03T06:31:27.448Z,11.57
2022-11-03T06:33:54.937Z,11.15
2022-11-03T06:36:23.842Z,10.95
2022-11-03T06:38:52.611Z,10.40
2022-11-03T06:41:24.354Z,10.55
2022-11-03T06:43:52.100Z,9.50
2022-11-03T06:46:22.442Z,13.55
2022-11-03T06:48:49.930Z,8.90
2022-11-03T06:51:19.711Z,9.07
2022-11-03T06:53:47.332Z,8.60
2022-11-03T06:56:16.683Z,7.75
2022-11-03T06:58:44.166Z,7.32
2022-11-03T07:01:14.572Z,8.50
2022-11-03T07:03:44.117Z,7.47
2022-11-03T07:06:21.095Z,7.55
2022-11-03T07:08:49.633Z,7.65
2022-11-03T07:11:18.517Z,6.38
2022-11-03T07:13:46.730Z,7.25
2022-11-03T07:16:18.656Z,6.68
2022-11-03T07:18:48.692Z,6.78
2022-11-03T07:21:26.804Z,7.38
2022-11-03T07:23:54.357Z,7.88
2022-11-03T07:26:24.042Z,7.28
2022-11-03T07:28:52.164Z,7.47
2022-11-03T07:31:21.423Z,7.75
2022-11-03T07:33:50.788Z,10.05
2022-11-03T07:36:21.276Z,9.02
2022-11-03T07:38:50.528Z,11.13
2022-11-03T07:41:20.543Z,10.40
2022-11-03T07:43:52.515Z,9.98
2022-11-03T07:46:21.249Z,8.90
2022-11-03T07:48:50.542Z,9.60
2022-11-03T07:51:21.178Z,9.43
2022-11-03T07:53:49.914Z,9.23
2022-11-03T07:56:19.831Z,8.93
2022-11-03T07:58:48.887Z,10.50
2022-11-03T08:01:29.821Z,8.52
2022-11-03T08:04:00.938Z,10.13
2022-11-03T08:06:28.421Z,9.57
2022-11-03T08:08:56.059Z,10.27
2022-11-03T08:11:27.886Z,10.40
2022-11-03T08:13:57.300Z,9.50
2022-11-03T08:16:24.922Z,10.10
2022-11-03T08:18:52.410Z,8.90
2022-11-03T08:21:21.239Z,8.70
2022-11-03T08:23:48.729Z,8.48
2022-11-03T08:26:16.289Z,7.90
2022-11-03T08:28:43.798Z,8.20
2022-11-03T08:31:13.210Z,7.72
2022-11-03T08:33:41.482Z,7.93
2022-11-03T08:36:09.571Z,8.40
2022-11-03T08:38:38.589Z,8.75
2022-11-03T08:41:06.350Z,7.53
2022-11-03T08:43:33.911Z,7.32
2022-11-03T08:46:09.774Z,7.75
2022-11-03T08:48:40.892Z,7.60
2022-11-03T08:51:08.456Z,8.25
2022-11-03T08:53:35.977Z,7.20
2022-11-03T08:56:10.248Z,7.70
2022-11-03T08:58:40.159Z,7.72
2022-11-03T09:01:10.080Z,6.50
2022-11-03T09:03:37.852Z,7.07
2022-11-03T09:06:05.844Z,6.63
2022-11-03T09:11:22.238Z,6.47
2022-11-03T09:13:49.696Z,6.25
2022-11-03T09:16:17.303Z,5.28
2022-11-03T09:18:47.208Z,5.72
2022-11-03T09:21:14.957Z,5.25
2022-11-03T09:23:42.624Z,5.63
2022-11-03T09:26:10.258Z,5.10
2022-11-03T09:28:39.161Z,4.75
2022-11-03T09:31:06.882Z,7.57
2022-11-03T09:33:34.414Z,4.65
2022-11-03T09:36:02.647Z,4.85
2022-11-03T09:38:30.590Z,4.80
2022-11-03T09:40:58.106Z,5.05
2022-11-03T09:43:25.705Z,6.03
2022-11-03T09:45:55.215Z,3.40
2022-11-03T09:48:23.081Z,2.38
2022-11-03T09:50:52.936Z,1.70
2022-11-03T09:53:20.586Z,2.10
2022-11-03T09:55:48.243Z,1.70
2022-11-03T09:58:16.771Z,1.80
2022-11-03T10:00:44.611Z,1.88
2022-11-03T10:03:14.090Z,2.10
2022-11-03T10:05:42.867Z,1.80
2022-11-03T10:08:22.921Z,1.33
2022-11-03T10:10:50.724Z,1.73
2022-11-03T10:13:22.886Z,1.30
2022-11-03T10:15:50.635Z,1.45
2022-11-03T10:18:20.034Z,1.10
2022-11-03T10:20:47.594Z,1.38
2022-11-03T10:23:17.923Z,1.58
2022-11-03T10:25:45.857Z,1.40
2022-11-03T10:28:17.875Z,1.17
2022-11-03T10:31:10.012Z,1.55
2022-11-03T10:33:38.692Z,1.63
2022-11-03T10:36:08.917Z,1.85
2022-11-03T10:38:36.899Z,2.13
2022-11-03T10:41:14.957Z,1.67
2022-11-03T10:43:43.304Z,1.42
2022-11-03T10:46:29.642Z,1.80
2022-11-03T10:51:38.137Z,1.48
2022-11-03T10:54:06.903Z,1.67
2022-11-03T10:56:34.428Z,1.48
2022-11-03T10:59:03.576Z,1.75
2022-11-03T11:01:31.297Z,1.98
2022-11-03T11:03:59.338Z,2.65
2022-11-03T11:06:29.918Z,2.42
2022-11-03T11:09:01.661Z,2.75
2022-11-03T11:11:29.554Z,2.25
2022-11-03T11:14:21.873Z,2.13
2022-11-03T11:16:51.719Z,2.70
2022-11-03T11:19:19.405Z,2.35
2022-11-03T11:22:11.078Z,2.20
2022-11-03T11:24:59.514Z,2.50
2022-11-03T11:27:45.825Z,1.92
2022-11-03T11:30:29.682Z,2.00
2022-11-03T11:33:00.189Z,2.20
2022-11-03T11:35:46.283Z,2.30
2022-11-03T11:38:32.530Z,2.17
2022-11-03T11:41:01.596Z,2.58
2022-11-03T11:43:29.529Z,2.25
2022-11-03T11:46:18.201Z,2.40
2022-11-03T11:48:45.807Z,6.47
2022-11-03T11:51:13.708Z,2.20
2022-11-03T11:53:41.886Z,3.38
2022-11-03T11:56:12.258Z,2.15
2022-11-03T11:58:42.534Z,1.75
2022-11-03T12:01:22.015Z,3.15
2022-11-03T12:03:50.691Z,2.75
2022-11-03T12:06:18.656Z,2.75
2022-11-03T12:08:46.174Z,2.45
2022-11-03T12:11:15.302Z,2.80
2022-11-03T12:13:48.100Z,3.20
2022-11-03T12:16:28.346Z,3.20
2022-11-03T12:18:56.221Z,2.97
2022-11-03T12:21:44.597Z,3.22
2022-11-03T12:24:26.959Z,2.78
2022-11-03T12:26:55.794Z,2.78
2022-11-03T12:29:23.254Z,2.80
2022-11-03T12:31:50.821Z,2.72
2022-11-03T12:34:18.592Z,2.22
2022-11-03T12:36:46.247Z,2.40
2022-11-03T12:39:13.892Z,2.13
2022-11-03T12:41:41.381Z,2.10
2022-11-03T12:44:10.299Z,2.22
2022-11-03T12:46:38.196Z,1.90
2022-11-03T12:49:05.642Z,2.38
2022-11-03T12:51:33.118Z,2.58
2022-11-03T12:54:00.645Z,2.10
2022-11-03T12:56:28.160Z,2.47
2022-11-03T12:58:55.700Z,2.45
2022-11-03T13:01:24.580Z,2.70
2022-11-03T13:03:52.334Z,2.78
2022-11-03T13:06:19.837Z,2.58
2022-11-03T13:08:49.120Z,2.83
2022-11-03T13:11:37.339Z,2.90
2022-11-03T13:14:05.742Z,2.70
2022-11-03T13:16:34.606Z,2.95
2022-11-03T13:19:02.404Z,2.75
2022-11-03T13:21:29.913Z,3.50
2022-11-03T13:23:57.411Z,3.50
2022-11-03T13:26:24.857Z,3.00
2022-11-03T13:28:52.685Z,3.33
2022-11-03T13:31:20.177Z,3.20
2022-11-03T13:33:49.014Z,3.00
2022-11-03T13:36:16.577Z,3.13
2022-11-03T13:38:44.430Z,3.40
2022-11-03T13:41:11.922Z,2.83
2022-11-03T13:43:39.395Z,3.40
2022-11-03T13:46:07.139Z,3.65
2022-11-03T13:49:27.751Z,3.33
2022-11-03T13:51:23.889Z,3.30
2022-11-03T13:59:27.840Z,3.05
2022-11-03T14:04:45.816Z,2.88
2022-11-03T14:07:15.043Z,3.00
2022-11-03T14:09:42.735Z,3.35
2022-11-03T14:12:32.779Z,3.55
2022-11-03T14:15:00.296Z,3.45
2022-11-03T14:17:28.155Z,3.22
2022-11-03T14:20:00.826Z,3.35
2022-11-03T14:22:32.966Z,3.25
2022-11-03T14:25:01.057Z,2.83
2022-11-03T14:27:29.981Z,3.25
2022-11-03T14:29:57.594Z,3.40
2022-11-03T14:32:25.146Z,3.67
2022-11-03T14:34:52.831Z,3.20
2022-11-03T14:37:20.949Z,4.10
2022-11-03T14:39:49.797Z,4.80
2022-11-03T14:42:16.901Z,4.40
2022-11-03T14:44:44.978Z,4.40
2022-11-03T14:47:14.166Z,4.40
2022-11-03T14:49:41.840Z,4.00
2022-11-03T14:52:09.464Z,3.50
2022-11-03T14:54:39.720Z,3.30
2022-11-03T14:57:09.863Z,3.08
2022-11-03T14:59:37.457Z,2.85
2022-11-03T15:02:06.080Z,3.10
2022-11-03T15:04:33.843Z,3.20
2022-11-03T15:07:02.935Z,3.00
2022-11-03T15:09:30.914Z,3.08
2022-11-03T15:11:58.386Z,2.80
2022-11-03T15:14:27.320Z,3.58
2022-11-03T15:16:54.989Z,2.92
2022-11-03T15:19:22.547Z,2.83
2022-11-03T15:21:50.368Z,3.28
2022-11-03T15:27:05.704Z,3.80
2022-11-03T15:29:35.047Z,3.50
2022-11-03T15:32:03.139Z,4.53
2022-11-03T15:34:30.921Z,3.42
2022-11-03T15:36:58.471Z,3.47
2022-11-03T15:39:25.980Z,3.22
2022-11-03T15:41:53.844Z,3.50
2022-11-03T15:44:21.454Z,3.47
2022-11-03T15:46:50.592Z,3.95
2022-11-03T15:49:18.294Z,3.80
2022-11-03T15:51:45.816Z,3.67
2022-11-03T15:54:13.321Z,4.13
2022-11-03T15:56:40.816Z,3.60
2022-11-03T15:59:08.394Z,3.13
2022-11-03T16:01:35.999Z,3.72
2022-11-03T16:04:04.937Z,7.70
2022-11-03T16:07:01.708Z,3.80
2022-11-03T16:09:20.139Z,4.15
2022-11-03T16:11:47.593Z,4.07
2022-11-03T16:14:15.185Z,4.85
2022-11-03T16:16:42.715Z,4.75
2022-11-03T16:19:11.642Z,4.45
2022-11-03T16:21:39.124Z,5.15
2022-11-03T16:24:07.011Z,5.20
2022-11-03T16:26:34.473Z,5.28
2022-11-03T16:29:01.998Z,5.45
2022-11-03T16:31:29.594Z,5.97
2022-11-03T16:33:58.093Z,6.32
2022-11-03T16:36:27.005Z,5.30
2022-11-03T16:38:54.701Z,5.47
2022-11-03T16:41:22.170Z,5.45
2022-11-03T16:43:49.929Z,5.95
2022-11-03T16:46:17.665Z,5.72
2022-11-03T16:48:45.419Z,5.75
2022-11-03T16:51:13.848Z,4.45
2022-11-03T16:53:43.186Z,6.30
2022-11-03T16:56:13.929Z,8.88
2022-11-03T16:58:41.476Z,9.30
2022-11-03T17:01:09.210Z,4.35
2022-11-03T17:03:37.880Z,4.65
2022-11-03T17:06:05.598Z,4.63
2022-11-03T17:08:51.842Z,4.07
2022-11-03T17:11:36.345Z,3.97
2022-11-03T17:14:07.450Z,4.00
2022-11-03T17:16:34.930Z,4.13
2022-11-03T17:19:02.507Z,4.03
2022-11-03T17:21:30.195Z,3.88
2022-11-03T17:23:59.779Z,3.78
2022-11-03T17:26:32.580Z,4.45
2022-11-03T17:29:00.194Z,3.90
2022-11-03T17:31:27.778Z,3.30
2022-11-03T17:33:57.452Z,3.83
2022-11-03T17:36:25.086Z,3.78
2022-11-03T17:38:52.604Z,3.25
2022-11-03T17:41:21.398Z,3.40
2022-11-03T17:43:50.212Z,3.75
2022-11-03T17:46:17.870Z,3.70
2022-11-03T17:48:46.973Z,3.40
2022-11-03T17:51:14.613Z,3.50
2022-11-03T17:53:43.617Z,3.72
2022-11-03T17:56:29.756Z,4.05
2022-11-03T17:58:59.736Z,4.07
2022-11-03T18:01:28.089Z,3.05
2022-11-03T18:03:55.767Z,3.78
2022-11-03T18:06:23.606Z,3.30
2022-11-03T18:08:51.161Z,3.33
2022-11-03T18:11:35.456Z,3.83
2022-11-03T18:14:04.556Z,2.95
2022-11-03T18:16:32.542Z,3.72
2022-11-03T18:19:00.147Z,3.63
2022-11-03T18:21:27.796Z,3.65
2022-11-03T18:23:55.626Z,3.53
2022-11-03T18:26:23.926Z,18.55
2022-11-03T18:28:51.465Z,5.22
2022-11-03T18:31:23.067Z,3.75
2022-11-03T18:33:50.818Z,4.63
2022-11-03T18:36:18.987Z,10.52
2022-11-03T18:38:48.388Z,4.57
2022-11-03T18:41:34.240Z,4.10
2022-11-03T18:44:01.860Z,4.68
2022-11-03T18:46:31.222Z,4.70
2022-11-03T18:48:58.700Z,5.45
2022-11-03T18:51:26.503Z,4.30
2022-11-03T18:53:54.019Z,5.47
2022-11-03T18:56:22.954Z,4.57
2022-11-03T18:58:51.811Z,5.22
2022-11-03T19:01:22.050Z,4.45
2022-11-03T19:03:51.028Z,5.22
2022-11-03T19:06:19.295Z,4.53
2022-11-03T19:08:47.523Z,6.68
2022-11-03T19:11:15.767Z,6.00
2022-11-03T19:13:44.477Z,6.22
2022-11-03T19:16:17.312Z,5.53
2022-11-03T19:18:45.423Z,5.53
2022-11-03T19:21:15.291Z,5.65
2022-11-03T19:23:47.742Z,6.25
2022-11-03T19:26:19.294Z,7.30
2022-11-03T19:28:58.440Z,7.75
2022-11-03T19:31:29.214Z,7.43
2022-11-03T19:33:57.421Z,7.18
2022-11-03T19:36:29.710Z,7.18
2022-11-03T19:38:57.965Z,7.93
2022-11-03T19:41:42.772Z,8.23
2022-11-03T19:44:11.519Z,10.13
2022-11-03T19:46:39.400Z,7.10
2022-11-03T19:49:07.084Z,10.73
2022-11-03T19:51:38.783Z,12.85
2022-11-03T19:54:07.690Z,11.10
2022-11-03T19:56:35.290Z,7.45
2022-11-03T19:59:03.698Z,6.97
2022-11-03T20:01:31.582Z,7.18
2022-11-03T20:03:59.161Z,6.32
2022-11-03T20:06:26.657Z,7.55
2022-11-03T20:11:38.171Z,6.30
2022-11-03T20:14:05.883Z,6.30
2022-11-03T20:16:33.385Z,6.55
2022-11-03T20:19:00.839Z,7.85
2022-11-03T20:21:34.335Z,5.63
2022-11-03T20:24:02.091Z,5.80
2022-11-03T20:26:30.220Z,5.03
2022-11-03T20:28:59.465Z,4.53
2022-11-03T20:31:26.961Z,4.53
2022-11-03T20:33:54.828Z,5.32
2022-11-03T20:36:22.390Z,4.65
2022-11-03T20:38:52.013Z,7.70
2022-11-03T20:41:19.544Z,4.82
2022-11-03T20:43:47.947Z,4.00
2022-11-03T20:46:20.418Z,4.07
2022-11-03T20:48:47.912Z,4.65
2022-11-03T20:51:15.918Z,4.10
2022-11-03T20:53:43.479Z,4.57
2022-11-03T20:56:18.438Z,4.40
2022-11-03T20:58:47.657Z,4.07
2022-11-03T21:01:17.089Z,5.00
2022-11-03T21:03:58.756Z,6.70
2022-11-03T21:06:29.935Z,6.20
2022-11-03T21:08:58.071Z,5.70
2022-11-03T21:11:28.455Z,6.20
2022-11-03T21:14:01.359Z,5.07
2022-11-03T21:16:50.479Z,4.43
2022-11-03T21:19:38.003Z,4.55
2022-11-03T21:22:30.943Z,4.10
2022-11-03T21:25:00.486Z,4.93
2022-11-03T21:27:28.010Z,5.20
2022-11-03T21:29:59.993Z,4.90
2022-11-03T21:32:29.369Z,6.03
2022-11-03T21:34:58.851Z,5.50
2022-11-03T21:37:26.315Z,5.97
2022-11-03T21:39:53.752Z,6.32
2022-11-03T21:42:38.686Z,5.75
2022-11-03T21:45:06.931Z,6.55
2022-11-03T21:47:34.557Z,6.35
2022-11-03T21:50:03.125Z,7.03
2022-11-03T21:52:35.517Z,7.43
2022-11-03T21:55:04.211Z,7.25
2022-11-03T21:57:32.235Z,7.00
2022-11-03T22:00:01.166Z,7.05
2022-11-03T22:02:30.222Z,7.20
2022-11-03T22:05:00.863Z,7.40
2022-11-03T22:07:31.840Z,6.82
2022-11-03T22:09:59.400Z,7.20
2022-11-03T22:12:27.052Z,6.93
2022-11-03T22:15:12.013Z,7.30
2022-11-03T22:17:39.601Z,6.65
2022-11-03T22:20:36.429Z,6.93
2022-11-03T22:23:33.986Z,7.10
2022-11-03T22:26:19.394Z,6.72
2022-11-03T22:29:06.917Z,7.38
2022-11-03T22:31:42.253Z,7.00
2022-11-03T22:34:27.162Z,6.85
2022-11-03T22:36:54.927Z,6.47
2022-11-03T22:39:42.751Z,6.50
2022-11-03T22:42:29.883Z,7.47
2022-11-03T22:45:14.303Z,7.80
2022-11-03T22:47:41.811Z,8.02
2022-11-03T22:50:09.742Z,7.38
2022-11-03T22:52:37.235Z,6.75
2022-11-03T22:55:05.426Z,6.75
2022-11-03T22:57:33.011Z,9.18
2022-11-03T23:00:00.438Z,7.13
2022-11-03T23:02:28.044Z,8.20
2022-11-03T23:04:55.596Z,7.10
2022-11-03T23:07:27.037Z,6.97
2022-11-03T23:09:57.575Z,6.65
2022-11-03T23:12:26.384Z,7.70
2022-11-03T23:15:22.873Z,7.93
2022-11-03T23:18:07.810Z,7.13
2022-11-03T23:21:04.064Z,6.63
2022-11-03T23:23:48.861Z,7.70
2022-11-03T23:26:16.912Z,7.20
2022-11-03T23:28:45.935Z,6.88
2022-11-03T23:31:13.810Z,7.15
2022-11-03T23:33:41.690Z,7.47
2022-11-03T23:36:10.323Z,7.82
2022-11-03T23:38:38.335Z,7.05
2022-11-03T23:41:06.894Z,7.40
2022-11-03T23:43:34.634Z,7.47
2022-11-03T23:46:21.076Z,7.20
2022-11-03T23:48:49.098Z,8.32
2022-11-03T23:51:17.108Z,8.00
2022-11-03T23:53:45.524Z,7.55
2022-11-03T23:56:31.217Z,8.05
2022-11-03T23:58:58.802Z,6.50
